Terminal Aerodrome Forecast
Issued by NWS Charleston, WV

Current Version | Previous Version | Graphics & Text | Print | Product List | Glossary On
Versions: 1 2 3 4 5 6 7 8 9 10 11 12 13 14 15 16 17 18 19 20 21 22 23 24 25 26
000
FTUS41 KRLX 201728
TAFBKW
TAF
KBKW 201728Z 2018/2118 27008KT P6SM VCTS BKN060CB
      TEMPO 2018/2020 26010G19KT 2SM -TSRA BKN020CB
     FM202100 24007KT P6SM SCT060
     FM210600 22007KT P6SM BKN050
     FM211100 24007KT 6SM SHRA OVC035
     FM211500 26007KT 6SM SHRA OVC030
     FM211600 26007KT 6SM SHRA OVC040
     FM211700 27008KT 5SM SHRA BKN040=

USA.gov is the U.S. government's official web portal to all federal, state and local government web resources and services.